createdAt,value
2018-06-30T00:01:15.303Z,9.03
2018-06-30T00:03:51.072Z,9.33
2018-06-30T00:06:22.635Z,9.43
2018-06-30T00:08:54.570Z,9.57
2018-06-30T00:11:26.056Z,9.43
2018-06-30T00:13:57.321Z,9.63
2018-06-30T00:16:28.569Z,9.70
2018-06-30T00:18:59.506Z,10.00
2018-06-30T00:21:30.551Z,9.87
2018-06-30T00:24:01.717Z,10.40
2018-06-30T00:26:32.914Z,10.13
2018-06-30T00:29:03.952Z,11.20
2018-06-30T00:31:35.251Z,9.67
2018-06-30T00:34:06.639Z,10.10
2018-06-30T00:36:37.826Z,10.07
2018-06-30T00:39:10.970Z,10.20
2018-06-30T00:41:41.946Z,9.70
2018-06-30T00:44:13.156Z,10.23
2018-06-30T00:46:44.147Z,11.80
2018-06-30T00:49:16.414Z,9.80
2018-06-30T00:51:47.380Z,11.13
2018-06-30T00:54:18.522Z,9.67
2018-06-30T00:56:49.699Z,10.27
2018-06-30T00:59:21.007Z,10.27
2018-06-30T01:01:52.136Z,10.33
2018-06-30T01:04:23.093Z,10.33
2018-06-30T01:06:54.558Z,10.40
2018-06-30T01:09:25.728Z,10.13
2018-06-30T01:11:56.844Z,10.20
2018-06-30T01:14:28.162Z,11.50
2018-06-30T01:16:59.259Z,9.97
2018-06-30T01:19:30.456Z,10.30
2018-06-30T01:22:01.955Z,11.80
2018-06-30T01:24:33.028Z,11.17
2018-06-30T01:27:04.245Z,10.03
2018-06-30T01:29:35.412Z,11.40
2018-06-30T01:32:06.515Z,10.00
2018-06-30T01:34:37.793Z,9.53
2018-06-30T01:37:08.772Z,10.27
2018-06-30T01:39:40.276Z,9.33
2018-06-30T01:42:11.335Z,9.93
2018-06-30T01:44:42.563Z,9.20
2018-06-30T01:47:13.995Z,9.47
2018-06-30T01:49:44.908Z,8.73
2018-06-30T01:52:16.430Z,9.67
2018-06-30T01:54:47.322Z,10.03
2018-06-30T01:57:18.592Z,9.03
2018-06-30T01:59:49.479Z,9.37
2018-06-30T02:02:21.058Z,9.90
2018-06-30T02:04:52.244Z,9.43
2018-06-30T02:07:23.449Z,13.63
2018-06-30T02:09:54.735Z,9.77
2018-06-30T02:12:25.873Z,10.17
2018-06-30T02:14:56.819Z,9.67
2018-06-30T02:17:27.820Z,9.77
2018-06-30T02:19:59.024Z,10.10
2018-06-30T02:22:30.208Z,9.57
2018-06-30T02:25:01.427Z,10.33
2018-06-30T02:27:33.150Z,9.63
2018-06-30T02:30:04.331Z,10.00
2018-06-30T06:13:46.934Z,8.90
2018-06-30T06:16:18.281Z,9.67
2018-06-30T06:18:49.741Z,10.60
2018-06-30T06:21:21.132Z,8.83
2018-06-30T06:23:51.559Z,8.87
2018-06-30T06:26:22.891Z,8.90
2018-06-30T06:28:54.106Z,9.17
2018-06-30T06:31:25.816Z,8.00
2018-06-30T06:33:57.008Z,8.17
2018-06-30T06:36:28.460Z,8.93
2018-06-30T06:39:00.063Z,8.73
2018-06-30T06:41:31.666Z,8.17
2018-06-30T06:44:03.004Z,8.27
2018-06-30T06:46:34.147Z,7.60
2018-06-30T06:49:05.955Z,7.53
2018-06-30T06:51:37.169Z,9.40
2018-06-30T06:54:08.599Z,8.23
2018-06-30T06:56:39.751Z,7.20
2018-06-30T06:59:11.185Z,7.40
2018-06-30T07:01:43.256Z,8.23
2018-06-30T07:04:14.439Z,8.30
2018-06-30T07:06:45.469Z,7.77
2018-06-30T07:09:17.481Z,7.10
2018-06-30T07:11:48.677Z,6.83
2018-06-30T07:14:19.829Z,9.77
2018-06-30T07:16:51.236Z,9.40
2018-06-30T07:19:22.493Z,6.93
2018-06-30T07:21:53.792Z,11.47
2018-06-30T07:24:25.176Z,5.93
2018-06-30T07:26:56.474Z,6.27
2018-06-30T07:29:27.571Z,6.50
2018-06-30T07:31:58.929Z,6.70
2018-06-30T07:34:30.166Z,7.07
2018-06-30T07:37:01.513Z,6.37
2018-06-30T07:39:32.561Z,6.00
2018-06-30T07:42:03.708Z,7.00
2018-06-30T07:44:35.355Z,7.47
2018-06-30T07:47:06.889Z,8.07
2018-06-30T07:49:38.287Z,6.07
2018-06-30T07:52:09.332Z,6.80
2018-06-30T07:54:40.652Z,5.80
2018-06-30T07:57:12.491Z,6.73
2018-06-30T07:59:43.860Z,5.37
2018-06-30T08:02:15.033Z,8.50
2018-06-30T08:04:46.199Z,6.20
2018-06-30T08:07:17.245Z,6.10
2018-06-30T08:09:48.852Z,7.50
2018-06-30T08:12:20.177Z,5.73
2018-06-30T08:14:51.381Z,5.77
2018-06-30T08:17:22.790Z,7.00
2018-06-30T08:19:54.128Z,5.85
2018-06-30T08:22:25.571Z,5.75
2018-06-30T08:24:56.920Z,7.97
2018-06-30T08:27:28.506Z,5.80
2018-06-30T08:29:59.877Z,5.55
2018-06-30T08:32:31.072Z,5.85
2018-06-30T08:35:02.940Z,5.37
2018-06-30T08:37:34.079Z,5.65
2018-06-30T08:40:06.703Z,5.72
2018-06-30T08:42:37.867Z,5.80
2018-06-30T08:45:09.109Z,5.87
2018-06-30T08:47:40.212Z,7.17
2018-06-30T08:50:11.544Z,6.00
2018-06-30T08:52:42.756Z,7.00
2018-06-30T08:55:14.032Z,6.90
2018-06-30T08:57:45.722Z,5.70
2018-06-30T09:00:16.955Z,5.67
2018-06-30T09:02:48.320Z,6.00
2018-06-30T09:05:19.955Z,5.85
2018-06-30T09:07:52.953Z,7.28
2018-06-30T09:10:24.252Z,7.97
2018-06-30T09:12:55.648Z,5.78
2018-06-30T09:15:27.301Z,4.90
2018-06-30T09:17:59.439Z,6.10
2018-06-30T09:20:30.804Z,6.25
2018-06-30T09:23:01.467Z,6.10
2018-06-30T09:25:32.785Z,8.60
2018-06-30T09:28:04.235Z,10.15
2018-06-30T09:30:35.547Z,7.20
2018-06-30T09:33:06.939Z,6.45
2018-06-30T09:35:38.112Z,7.05
2018-06-30T09:38:09.550Z,6.12
2018-06-30T09:40:40.723Z,6.00
2018-06-30T09:43:11.717Z,5.40
2018-06-30T09:45:43.118Z,5.58
2018-06-30T09:48:14.300Z,4.90
2018-06-30T09:50:45.507Z,8.13
2018-06-30T09:53:16.870Z,5.55
2018-06-30T09:55:48.276Z,5.70
2018-06-30T09:58:19.840Z,5.15
2018-06-30T10:00:51.363Z,5.45
2018-06-30T10:03:22.610Z,5.25
2018-06-30T10:05:53.988Z,6.12
2018-06-30T10:08:25.207Z,5.28
2018-06-30T10:10:56.660Z,5.28
2018-06-30T10:13:27.766Z,6.90
2018-06-30T10:15:59.138Z,5.62
2018-06-30T10:18:30.423Z,4.25
2018-06-30T10:21:01.874Z,4.80
2018-06-30T10:23:32.965Z,6.67
2018-06-30T10:26:04.639Z,5.75
2018-06-30T10:28:35.770Z,8.10
2018-06-30T10:31:06.949Z,4.85
2018-06-30T10:33:38.112Z,5.22
2018-06-30T10:36:09.077Z,4.28
2018-06-30T10:38:40.120Z,6.37
2018-06-30T10:41:11.441Z,7.72
2018-06-30T10:43:42.663Z,5.97
2018-06-30T10:46:13.908Z,6.20
2018-06-30T10:48:45.058Z,4.95
2018-06-30T10:51:17.158Z,4.15
2018-06-30T10:53:48.232Z,5.42
2018-06-30T10:56:19.845Z,4.20
2018-06-30T10:58:51.508Z,5.53
2018-06-30T11:01:22.791Z,4.33
2018-06-30T11:03:54.210Z,4.15
2018-06-30T11:06:25.384Z,4.42
2018-06-30T11:08:56.772Z,6.33
2018-06-30T11:11:27.939Z,8.10
2018-06-30T11:13:59.328Z,4.25
2018-06-30T11:16:30.513Z,4.67
2018-06-30T11:19:01.695Z,7.17
2018-06-30T11:21:33.075Z,4.60
2018-06-30T11:24:04.319Z,7.12
2018-06-30T11:26:35.913Z,4.72
2018-06-30T11:29:07.627Z,6.12
2018-06-30T11:31:39.053Z,7.10
2018-06-30T11:34:11.964Z,4.28
2018-06-30T11:36:43.151Z,4.50
2018-06-30T11:39:14.767Z,5.42
2018-06-30T11:41:46.129Z,5.50
2018-06-30T11:44:17.360Z,5.92
2018-06-30T11:46:48.972Z,3.83
2018-06-30T11:49:20.307Z,5.62
2018-06-30T11:51:53.287Z,5.92
2018-06-30T11:54:24.455Z,4.55
2018-06-30T11:56:55.651Z,5.67
2018-06-30T11:59:27.313Z,6.55
2018-06-30T12:01:59.190Z,4.75
2018-06-30T12:04:30.384Z,4.53
2018-06-30T12:07:01.592Z,5.35
2018-06-30T12:09:33.247Z,3.77
2018-06-30T12:12:04.544Z,4.65
2018-06-30T12:14:35.847Z,5.95
2018-06-30T12:17:07.040Z,5.00
2018-06-30T12:19:38.407Z,6.22
2018-06-30T12:22:10.534Z,7.60
2018-06-30T12:24:42.164Z,4.22
2018-06-30T12:27:13.481Z,4.72
2018-06-30T12:29:44.688Z,4.42
2018-06-30T12:32:16.142Z,5.08
2018-06-30T12:34:47.369Z,4.90
2018-06-30T12:37:18.075Z,4.47
2018-06-30T12:39:49.443Z,6.05
2018-06-30T12:42:20.954Z,5.72
2018-06-30T12:44:52.260Z,4.53
2018-06-30T12:47:23.610Z,4.70
2018-06-30T12:49:55.165Z,3.95
2018-06-30T12:52:26.555Z,5.65
2018-06-30T12:54:57.636Z,8.63
2018-06-30T12:57:28.831Z,4.62
2018-06-30T13:00:00.106Z,6.97
2018-06-30T13:02:31.343Z,6.45
2018-06-30T13:05:02.550Z,5.00
2018-06-30T13:07:33.974Z,6.08
2018-06-30T13:10:05.347Z,4.40
2018-06-30T13:12:36.739Z,14.38
2018-06-30T13:15:08.398Z,5.53
2018-06-30T13:17:39.819Z,12.47
2018-06-30T13:20:11.240Z,7.37
2018-06-30T13:22:42.274Z,8.25
2018-06-30T13:25:13.486Z,3.90
2018-06-30T13:27:45.398Z,8.20
2018-06-30T13:30:17.052Z,8.65
2018-06-30T13:32:48.453Z,4.87
2018-06-30T13:35:19.761Z,5.85
2018-06-30T13:37:50.984Z,3.85
2018-06-30T13:40:22.383Z,4.22
2018-06-30T18:59:45.188Z,6.00
2018-06-30T19:02:17.288Z,5.63
2018-06-30T19:04:48.952Z,6.67
2018-06-30T19:07:20.349Z,4.67
2018-06-30T19:09:51.456Z,5.70
2018-06-30T19:12:22.871Z,8.00
2018-06-30T19:14:55.069Z,6.43
2018-06-30T19:17:26.221Z,6.27
2018-06-30T19:19:57.433Z,8.10
2018-06-30T19:22:28.835Z,6.33
2018-06-30T19:24:59.990Z,6.70
2018-06-30T19:27:31.667Z,5.30
2018-06-30T19:30:03.307Z,5.40
2018-06-30T19:32:34.385Z,3.70
2018-06-30T19:35:05.737Z,4.57
2018-06-30T19:37:36.996Z,3.60
2018-06-30T19:40:08.150Z,4.80
2018-06-30T19:42:39.785Z,5.40
2018-06-30T19:45:10.955Z,6.53
2018-06-30T19:47:42.120Z,4.73
2018-06-30T19:50:13.520Z,5.57
2018-06-30T19:52:44.868Z,3.37
2018-06-30T19:55:16.121Z,4.00
2018-06-30T19:57:47.745Z,4.90
2018-06-30T20:00:18.884Z,3.67
2018-06-30T20:02:50.271Z,4.73
2018-06-30T20:05:21.615Z,3.93
2018-06-30T20:07:54.324Z,4.00
2018-06-30T20:10:26.593Z,4.87
2018-06-30T20:12:57.747Z,6.53
2018-06-30T20:15:29.230Z,3.53
2018-06-30T20:17:59.858Z,4.67
2018-06-30T20:20:30.905Z,5.03
2018-06-30T20:23:02.606Z,3.67
2018-06-30T20:25:33.864Z,6.13
2018-06-30T20:28:05.521Z,4.87
2018-06-30T20:30:36.538Z,5.27
2018-06-30T20:33:07.761Z,6.30
2018-06-30T20:35:38.830Z,5.97
2018-06-30T20:38:10.211Z,4.70
2018-06-30T20:40:41.640Z,4.33
2018-06-30T20:43:13.000Z,4.27
2018-06-30T20:45:45.748Z,6.03
2018-06-30T20:48:17.236Z,5.60
2018-06-30T20:50:48.439Z,4.90
2018-06-30T20:53:19.573Z,8.83
2018-06-30T20:55:50.923Z,9.50
2018-06-30T20:58:22.308Z,11.07
2018-06-30T21:00:53.724Z,9.70
2018-06-30T21:03:24.921Z,7.33
2018-06-30T21:05:56.302Z,9.30
2018-06-30T21:08:27.669Z,5.63
2018-06-30T21:10:59.113Z,6.13
2018-06-30T21:13:30.421Z,6.77
2018-06-30T21:16:01.612Z,5.00
2018-06-30T21:18:33.128Z,4.30
2018-06-30T21:21:03.847Z,4.80
2018-06-30T21:23:35.207Z,8.73
2018-06-30T21:26:07.307Z,4.17
2018-06-30T21:28:38.695Z,5.37
2018-06-30T21:31:10.148Z,4.33
2018-06-30T21:33:41.529Z,5.23
2018-06-30T21:36:13.025Z,3.87
2018-06-30T21:38:44.582Z,3.77
2018-06-30T21:41:16.165Z,2.90
2018-06-30T21:43:47.480Z,5.17
2018-06-30T21:46:18.758Z,2.90
2018-06-30T21:48:50.113Z,2.90
2018-06-30T21:51:21.162Z,4.27
2018-06-30T21:53:51.934Z,3.07
2018-06-30T21:56:23.303Z,2.23
2018-06-30T21:58:54.656Z,5.63
2018-06-30T22:01:27.019Z,4.67
2018-06-30T22:03:59.636Z,2.20
2018-06-30T22:06:30.799Z,3.67
2018-06-30T22:09:02.000Z,2.97
2018-06-30T22:11:33.548Z,2.37
2018-06-30T22:14:05.260Z,3.30
2018-06-30T22:16:36.552Z,2.83
2018-06-30T22:19:07.756Z,2.40
2018-06-30T22:21:39.100Z,1.90
2018-06-30T22:24:10.756Z,1.90
2018-06-30T22:26:42.090Z,2.97
2018-06-30T22:29:13.560Z,2.17
2018-06-30T22:31:44.868Z,2.03
2018-06-30T22:34:16.062Z,2.33
2018-06-30T22:37:50.042Z,2.03
2018-06-30T22:40:21.784Z,1.90
2018-06-30T22:42:53.163Z,2.37
2018-06-30T22:45:25.341Z,2.67
2018-06-30T22:47:56.745Z,2.13
2018-06-30T22:50:28.087Z,3.10
2018-06-30T22:52:59.446Z,3.87
2018-06-30T22:55:30.836Z,3.23
2018-06-30T22:58:02.040Z,2.30
2018-06-30T23:00:33.714Z,3.27
2018-06-30T23:03:13.368Z,2.90
2018-06-30T23:05:44.680Z,2.97
2018-06-30T23:08:15.989Z,3.83
2018-06-30T23:10:54.181Z,3.03
2018-06-30T23:13:25.288Z,4.30
2018-06-30T23:15:56.689Z,3.30
2018-06-30T23:18:28.390Z,2.40
2018-06-30T23:20:59.496Z,2.93
2018-06-30T23:23:30.672Z,3.50
2018-06-30T23:26:01.888Z,2.47
2018-06-30T23:28:33.488Z,5.17
2018-06-30T23:31:04.667Z,2.77
2018-06-30T23:33:35.809Z,2.03
2018-06-30T23:36:08.045Z,2.40
2018-06-30T23:38:40.924Z,3.13
2018-06-30T23:41:12.028Z,4.23
2018-06-30T23:43:43.171Z,2.67
2018-06-30T23:46:14.345Z,2.77
2018-06-30T23:48:45.810Z,2.00
2018-06-30T23:51:17.098Z,2.37
2018-06-30T23:53:48.304Z,3.83
2018-06-30T23:56:19.687Z,1.90
2018-06-30T23:58:50.898Z,2.97
